sensor_id;sensor_type;location;lat;lon;timestamp;pressure;altitude;pressure_sealevel;temperature;humidity
24230;BME280;12362;50.004;8.006;2023-11-21T00:00:14;99898.38;;;9.81;100.00
24230;BME280;12362;50.004;8.006;2023-11-21T00:02:41;99898.31;;;9.83;100.00
24230;BME280;12362;50.004;8.006;2023-11-21T00:05:11;99896.53;;;9.83;100.00
24230;BME280;12362;50.004;8.006;2023-11-21T00:07:40;99896.78;;;9.79;100.00
24230;BME280;12362;50.004;8.006;2023-11-21T00:10:06;99888.09;;;9.80;100.00
24230;BME280;12362;50.004;8.006;2023-11-21T00:12:36;99902.66;;;9.82;100.00
24230;BME280;12362;50.004;8.006;2023-11-21T00:15:03;99894.34;;;9.76;100.00
24230;BME280;12362;50.004;8.006;2023-11-21T00:17:30;99900.22;;;9.79;100.00
24230;BME280;12362;50.004;8.006;2023-11-21T00:19:56;99898.47;;;9.80;100.00
24230;BME280;12362;50.004;8.006;2023-11-21T00:22:22;99898.22;;;9.84;100.00
24230;BME280;12362;50.004;8.006;2023-11-21T00:24:47;99905.25;;;9.82;100.00
24230;BME280;12362;50.004;8.006;2023-11-21T00:27:13;99905.16;;;9.84;100.00
24230;BME280;12362;50.004;8.006;2023-11-21T00:29:40;99898.31;;;9.83;100.00
24230;BME280;12362;50.004;8.006;2023-11-21T00:32:06;99905.00;;;9.87;100.00
24230;BME280;12362;50.004;8.006;2023-11-21T00:34:32;99902.50;;;9.85;100.00
24230;BME280;12362;50.004;8.006;2023-11-21T00:36:58;99911.09;;;9.86;100.00
24230;BME280;12362;50.004;8.006;2023-11-21T00:39:23;99908.34;;;9.89;100.00
24230;BME280;12362;50.004;8.006;2023-11-21T00:41:49;99907.16;;;9.94;100.00
24230;BME280;12362;50.004;8.006;2023-11-21T00:44:15;99904.59;;;9.94;100.00
24230;BME280;12362;50.004;8.006;2023-11-21T00:46:41;99905.44;;;9.94;100.00
24230;BME280;12362;50.004;8.006;2023-11-21T00:49:07;99908.03;;;9.94;100.00
24230;BME280;12362;50.004;8.006;2023-11-21T00:51:33;99904.59;;;9.94;100.00
24230;BME280;12362;50.004;8.006;2023-11-21T00:53:59;99906.97;;;9.98;100.00
24230;BME280;12362;50.004;8.006;2023-11-21T00:56:25;99912.06;;;10.00;100.00
24230;BME280;12362;50.004;8.006;2023-11-21T00:58:51;99903.44;;;9.99;100.00
24230;BME280;12362;50.004;8.006;2023-11-21T01:01:21;99910.41;;;9.99;100.00
24230;BME280;12362;50.004;8.006;2023-11-21T01:03:50;99906.25;;;9.95;100.00
24230;BME280;12362;50.004;8.006;2023-11-21T01:06:16;99908.94;;;9.93;100.00
24230;BME280;12362;50.004;8.006;2023-11-21T01:08:43;99914.94;;;9.94;100.00
24230;BME280;12362;50.004;8.006;2023-11-21T01:11:09;99924.50;;;9.93;100.00
24230;BME280;12362;50.004;8.006;2023-11-21T01:13:38;99925.31;;;9.94;100.00
24230;BME280;12362;50.004;8.006;2023-11-21T01:16:05;99924.66;;;9.91;100.00
24230;BME280;12362;50.004;8.006;2023-11-21T01:18:32;99927.09;;;9.93;100.00
24230;BME280;12362;50.004;8.006;2023-11-21T01:20:58;99918.22;;;9.97;100.00
24230;BME280;12362;50.004;8.006;2023-11-21T01:23:26;99925.16;;;9.97;100.00
24230;BME280;12362;50.004;8.006;2023-11-21T01:25:55;99926.34;;;9.92;100.00
24230;BME280;12362;50.004;8.006;2023-11-21T01:28:21;99922.06;;;9.91;100.00
24230;BME280;12362;50.004;8.006;2023-11-21T01:30:48;99927.56;;;9.85;100.00
24230;BME280;12362;50.004;8.006;2023-11-21T01:33:13;99940.78;;;9.80;100.00
24230;BME280;12362;50.004;8.006;2023-11-21T01:35:44;99937.66;;;9.74;100.00
24230;BME280;12362;50.004;8.006;2023-11-21T01:38:11;99951.47;;;9.74;100.00
24230;BME280;12362;50.004;8.006;2023-11-21T01:40:37;99943.63;;;9.76;100.00
24230;BME280;12362;50.004;8.006;2023-11-21T01:43:03;99951.25;;;9.79;100.00
24230;BME280;12362;50.004;8.006;2023-11-21T01:45:29;99946.97;;;9.78;100.00
24230;BME280;12362;50.004;8.006;2023-11-21T01:47:56;99963.44;;;9.77;100.00
24230;BME280;12362;50.004;8.006;2023-11-21T01:50:24;99947.72;;;9.80;100.00
24230;BME280;12362;50.004;8.006;2023-11-21T01:52:50;99954.59;;;9.81;100.00
24230;BME280;12362;50.004;8.006;2023-11-21T01:55:17;99962.28;;;9.82;100.00
24230;BME280;12362;50.004;8.006;2023-11-21T01:57:46;99956.28;;;9.82;100.00
24230;BME280;12362;50.004;8.006;2023-11-21T02:00:13;99961.38;;;9.83;100.00
24230;BME280;12362;50.004;8.006;2023-11-21T02:02:46;99963.19;;;9.81;100.00
24230;BME280;12362;50.004;8.006;2023-11-21T02:05:14;99959.84;;;9.79;100.00
24230;BME280;12362;50.004;8.006;2023-11-21T02:07:41;99958.88;;;9.82;100.00
24230;BME280;12362;50.004;8.006;2023-11-21T02:10:08;99965.03;;;9.79;100.00
24230;BME280;12362;50.004;8.006;2023-11-21T02:12:34;99963.03;;;9.84;100.00
24230;BME280;12362;50.004;8.006;2023-11-21T02:15:03;99965.72;;;9.83;100.00
24230;BME280;12362;50.004;8.006;2023-11-21T02:17:35;99963.97;;;9.83;100.00
24230;BME280;12362;50.004;8.006;2023-11-21T02:20:00;99970.97;;;9.81;100.00
24230;BME280;12362;50.004;8.006;2023-11-21T02:22:30;99964.06;;;9.82;100.00
24230;BME280;12362;50.004;8.006;2023-11-21T02:24:56;99970.66;;;9.87;100.00
24230;BME280;12362;50.004;8.006;2023-11-21T02:27:24;99972.41;;;9.87;100.00
24230;BME280;12362;50.004;8.006;2023-11-21T02:29:49;99971.41;;;9.89;100.00
24230;BME280;12362;50.004;8.006;2023-11-21T02:32:15;99971.63;;;9.85;100.00
24230;BME280;12362;50.004;8.006;2023-11-21T02:34:45;99973.41;;;9.84;100.00
24230;BME280;12362;50.004;8.006;2023-11-21T02:37:11;99971.97;;;9.79;100.00
24230;BME280;12362;50.004;8.006;2023-11-21T02:39:37;99976.91;;;9.83;100.00
24230;BME280;12362;50.004;8.006;2023-11-21T02:42:03;99976.78;;;9.86;100.00
24230;BME280;12362;50.004;8.006;2023-11-21T02:44:31;99975.09;;;9.85;100.00
24230;BME280;12362;50.004;8.006;2023-11-21T02:46:59;99974.22;;;9.85;100.00
24230;BME280;12362;50.004;8.006;2023-11-21T02:49:26;99970.97;;;9.81;100.00
24230;BME280;12362;50.004;8.006;2023-11-21T02:51:56;99971.59;;;9.86;100.00
24230;BME280;12362;50.004;8.006;2023-11-21T02:54:21;99969.13;;;9.83;100.00
24230;BME280;12362;50.004;8.006;2023-11-21T02:56:47;99970.03;;;9.67;100.00
24230;BME280;12362;50.004;8.006;2023-11-21T02:59:14;99980.03;;;9.57;100.00
24230;BME280;12362;50.004;8.006;2023-11-21T03:01:40;99986.28;;;9.53;100.00
24230;BME280;12362;50.004;8.006;2023-11-21T03:04:06;99987.34;;;9.49;100.00
24230;BME280;12362;50.004;8.006;2023-11-21T03:06:32;99984.75;;;9.49;100.00
24230;BME280;12362;50.004;8.006;2023-11-21T03:08:59;99980.78;;;9.42;100.00
24230;BME280;12362;50.004;8.006;2023-11-21T03:11:24;99984.53;;;9.37;100.00
24230;BME280;12362;50.004;8.006;2023-11-21T03:13:50;99988.22;;;9.33;100.00
24230;BME280;12362;50.004;8.006;2023-11-21T03:16:16;99986.53;;;9.32;100.00
24230;BME280;12362;50.004;8.006;2023-11-21T03:18:41;99985.63;;;9.33;100.00
24230;BME280;12362;50.004;8.006;2023-11-21T03:21:07;99993.97;;;9.38;100.00
24230;BME280;12362;50.004;8.006;2023-11-21T03:23:36;99992.91;;;9.42;100.00
24230;BME280;12362;50.004;8.006;2023-11-21T03:26:03;99997.56;;;9.35;100.00
24230;BME280;12362;50.004;8.006;2023-11-21T03:28:29;99995.75;;;9.37;100.00
24230;BME280;12362;50.004;8.006;2023-11-21T03:30:56;99994.31;;;9.32;100.00
24230;BME280;12362;50.004;8.006;2023-11-21T03:33:22;99994.91;;;9.20;100.00
24230;BME280;12362;50.004;8.006;2023-11-21T03:35:48;99994.66;;;9.07;100.00
24230;BME280;12362;50.004;8.006;2023-11-21T03:38:14;99995.75;;;9.03;100.00
24230;BME280;12362;50.004;8.006;2023-11-21T03:40:41;99993.53;;;8.96;100.00
24230;BME280;12362;50.004;8.006;2023-11-21T03:43:07;99999.84;;;8.91;100.00
24230;BME280;12362;50.004;8.006;2023-11-21T03:45:32;100004.94;;;8.92;100.00
24230;BME280;12362;50.004;8.006;2023-11-21T03:47:58;100012.38;;;8.81;100.00
24230;BME280;12362;50.004;8.006;2023-11-21T03:50:23;100021.00;;;8.82;100.00
24230;BME280;12362;50.004;8.006;2023-11-21T03:52:49;100021.41;;;8.73;100.00
24230;BME280;12362;50.004;8.006;2023-11-21T03:55:14;100022.66;;;8.83;100.00
24230;BME280;12362;50.004;8.006;2023-11-21T03:57:42;100030.13;;;8.89;100.00
24230;BME280;12362;50.004;8.006;2023-11-21T04:00:08;100018.97;;;8.88;100.00
24230;BME280;12362;50.004;8.006;2023-11-21T04:02:37;100016.38;;;8.88;100.00
24230;BME280;12362;50.004;8.006;2023-11-21T04:05:03;100022.16;;;8.93;100.00
24230;BME280;12362;50.004;8.006;2023-11-21T04:07:28;100030.59;;;8.97;100.00
24230;BME280;12362;50.004;8.006;2023-11-21T04:09:54;100035.00;;;8.95;100.00
24230;BME280;12362;50.004;8.006;2023-11-21T04:12:19;100033.41;;;8.92;100.00
24230;BME280;12362;50.004;8.006;2023-11-21T04:14:45;100039.34;;;8.94;100.00
24230;BME280;12362;50.004;8.006;2023-11-21T04:17:10;100041.50;;;9.03;100.00
24230;BME280;12362;50.004;8.006;2023-11-21T04:19:36;100050.94;;;9.04;100.00
24230;BME280;12362;50.004;8.006;2023-11-21T04:22:01;100048.34;;;9.04;100.00
24230;BME280;12362;50.004;8.006;2023-11-21T04:24:27;100050.34;;;8.99;100.00
24230;BME280;12362;50.004;8.006;2023-11-21T04:26:53;100048.44;;;9.02;100.00
24230;BME280;12362;50.004;8.006;2023-11-21T04:29:18;100048.34;;;9.04;100.00
24230;BME280;12362;50.004;8.006;2023-11-21T04:31:44;100043.91;;;9.24;100.00
24230;BME280;12362;50.004;8.006;2023-11-21T04:34:09;100057.84;;;9.39;100.00
24230;BME280;12362;50.004;8.006;2023-11-21T04:36:35;100051.28;;;9.32;100.00
24230;BME280;12362;50.004;8.006;2023-11-21T04:39:01;100053.94;;;9.30;100.00
24230;BME280;12362;50.004;8.006;2023-11-21T04:41:26;100066.22;;;9.27;100.00
24230;BME280;12362;50.004;8.006;2023-11-21T04:43:52;100059.44;;;9.24;100.00
24230;BME280;12362;50.004;8.006;2023-11-21T04:46:17;100069.88;;;9.23;100.00
24230;BME280;12362;50.004;8.006;2023-11-21T04:48:43;100065.84;;;9.17;100.00
24230;BME280;12362;50.004;8.006;2023-11-21T04:51:09;100070.16;;;9.17;100.00
24230;BME280;12362;50.004;8.006;2023-11-21T04:53:37;100068.94;;;9.24;100.00
24230;BME280;12362;50.004;8.006;2023-11-21T04:56:03;100072.53;;;9.21;100.00
24230;BME280;12362;50.004;8.006;2023-11-21T04:58:28;100087.16;;;9.22;100.00
24230;BME280;12362;50.004;8.006;2023-11-21T05:00:58;100089.28;;;9.14;100.00
24230;BME280;12362;50.004;8.006;2023-11-21T05:03:23;100090.41;;;9.09;100.00
24230;BME280;12362;50.004;8.006;2023-11-21T05:05:49;100099.25;;;9.05;100.00
24230;BME280;12362;50.004;8.006;2023-11-21T05:08:14;100099.94;;;9.08;100.00
24230;BME280;12362;50.004;8.006;2023-11-21T05:10:40;100106.94;;;9.06;100.00
24230;BME280;12362;50.004;8.006;2023-11-21T05:13:06;100105.31;;;9.04;100.00
24230;BME280;12362;50.004;8.006;2023-11-21T05:15:36;100107.69;;;9.08;100.00
24230;BME280;12362;50.004;8.006;2023-11-21T05:18:02;100116.25;;;9.10;100.00
24230;BME280;12362;50.004;8.006;2023-11-21T05:20:28;100111.06;;;9.10;100.00
24230;BME280;12362;50.004;8.006;2023-11-21T05:22:53;100112.75;;;9.11;100.00
24230;BME280;12362;50.004;8.006;2023-11-21T05:25:19;100117.16;;;9.09;100.00
24230;BME280;12362;50.004;8.006;2023-11-21T05:27:47;100113.56;;;9.12;100.00
24230;BME280;12362;50.004;8.006;2023-11-21T05:30:21;100119.81;;;9.08;100.00
24230;BME280;12362;50.004;8.006;2023-11-21T05:32:47;100126.69;;;9.09;100.00
24230;BME280;12362;50.004;8.006;2023-11-21T05:35:12;100137.19;;;9.06;100.00
24230;BME280;12362;50.004;8.006;2023-11-21T05:37:43;100149.22;;;9.07;100.00
24230;BME280;12362;50.004;8.006;2023-11-21T05:40:09;100146.50;;;9.10;100.00
24230;BME280;12362;50.004;8.006;2023-11-21T05:42:35;100139.41;;;9.13;100.00
24230;BME280;12362;50.004;8.006;2023-11-21T05:45:02;100145.28;;;9.17;100.00
24230;BME280;12362;50.004;8.006;2023-11-21T05:47:41;100154.50;;;9.22;100.00
24230;BME280;12362;50.004;8.006;2023-11-21T05:50:10;100160.69;;;9.20;100.00
24230;BME280;12362;50.004;8.006;2023-11-21T05:52:39;100156.28;;;9.22;100.00
24230;BME280;12362;50.004;8.006;2023-11-21T05:55:08;100164.03;;;9.22;100.00
24230;BME280;12362;50.004;8.006;2023-11-21T05:57:38;100167.38;;;9.24;100.00
24230;BME280;12362;50.004;8.006;2023-11-21T06:00:09;100164.09;;;9.20;100.00
24230;BME280;12362;50.004;8.006;2023-11-21T06:02:40;100165.72;;;9.23;100.00
24230;BME280;12362;50.004;8.006;2023-11-21T06:05:09;100163.31;;;9.18;100.00
24230;BME280;12362;50.004;8.006;2023-11-21T06:07:35;100175.09;;;9.25;100.00
24230;BME280;12362;50.004;8.006;2023-11-21T06:10:04;100170.91;;;9.23;100.00
24230;BME280;12362;50.004;8.006;2023-11-21T06:12:37;100186.16;;;9.29;100.00
24230;BME280;12362;50.004;8.006;2023-11-21T06:15:04;100186.16;;;9.29;100.00
24230;BME280;12362;50.004;8.006;2023-11-21T06:17:34;100192.03;;;9.32;100.00
24230;BME280;12362;50.004;8.006;2023-11-21T06:20:04;100190.28;;;9.33;100.00
24230;BME280;12362;50.004;8.006;2023-11-21T06:22:38;100197.88;;;9.36;100.00
24230;BME280;12362;50.004;8.006;2023-11-21T06:25:05;100192.03;;;9.32;100.00
24230;BME280;12362;50.004;8.006;2023-11-21T06:27:32;100198.84;;;9.35;100.00
24230;BME280;12362;50.004;8.006;2023-11-21T06:29:58;100205.75;;;9.34;100.00
24230;BME280;12362;50.004;8.006;2023-11-21T06:32:27;100206.59;;;9.35;100.00
24230;BME280;12362;50.004;8.006;2023-11-21T06:34:55;100207.34;;;9.37;100.00
24230;BME280;12362;50.004;8.006;2023-11-21T06:37:21;100201.34;;;9.36;100.00
24230;BME280;12362;50.004;8.006;2023-11-21T06:39:51;100207.28;;;9.38;100.00
24230;BME280;12362;50.004;8.006;2023-11-21T06:42:19;100217.56;;;9.40;100.00
24230;BME280;12362;50.004;8.006;2023-11-21T06:44:48;100223.44;;;9.43;100.00
24230;BME280;12362;50.004;8.006;2023-11-21T06:47:17;100219.56;;;9.35;100.00
24230;BME280;12362;50.004;8.006;2023-11-21T06:49:46;100229.91;;;9.35;100.00
24230;BME280;12362;50.004;8.006;2023-11-21T06:52:13;100233.56;;;9.31;100.00
24230;BME280;12362;50.004;8.006;2023-11-21T06:54:39;100242.72;;;9.38;100.00
24230;BME280;12362;50.004;8.006;2023-11-21T06:57:05;100245.25;;;9.39;100.00
24230;BME280;12362;50.004;8.006;2023-11-21T06:59:30;100242.72;;;9.38;100.00
24230;BME280;12362;50.004;8.006;2023-11-21T07:01:56;100245.03;;;9.44;100.00
24230;BME280;12362;50.004;8.006;2023-11-21T07:04:21;100250.22;;;9.44;100.00
24230;BME280;12362;50.004;8.006;2023-11-21T07:06:47;100252.13;;;9.40;100.00
24230;BME280;12362;50.004;8.006;2023-11-21T07:09:13;100247.63;;;9.44;100.00
24230;BME280;12362;50.004;8.006;2023-11-21T07:11:39;100255.41;;;9.44;100.00
24230;BME280;12362;50.004;8.006;2023-11-21T07:14:04;100253.84;;;9.40;100.00
24230;BME280;12362;50.004;8.006;2023-11-21T07:16:37;100261.50;;;9.43;100.00
24230;BME280;12362;50.004;8.006;2023-11-21T07:19:04;100259.81;;;9.42;100.00
24230;BME280;12362;50.004;8.006;2023-11-21T07:21:32;100264.78;;;9.46;100.00
24230;BME280;12362;50.004;8.006;2023-11-21T07:24:21;100275.84;;;9.50;100.00
24230;BME280;12362;50.004;8.006;2023-11-21T07:27:11;100280.06;;;9.52;100.00
24230;BME280;12362;50.004;8.006;2023-11-21T07:29:37;100287.97;;;9.49;100.00
24230;BME280;12362;50.004;8.006;2023-11-21T07:32:08;100294.19;;;9.45;100.00
24230;BME280;12362;50.004;8.006;2023-11-21T07:34:48;100287.31;;;9.44;100.00
24230;BME280;12362;50.004;8.006;2023-11-21T07:37:19;100295.75;;;9.49;100.00
24230;BME280;12362;50.004;8.006;2023-11-21T07:39:45;100296.50;;;9.51;100.00
24230;BME280;12362;50.004;8.006;2023-11-21T07:42:14;100301.28;;;9.60;100.00
24230;BME280;12362;50.004;8.006;2023-11-21T07:44:40;100305.75;;;9.57;100.00
24230;BME280;12362;50.004;8.006;2023-11-21T07:47:05;100311.50;;;9.63;100.00
24230;BME280;12362;50.004;8.006;2023-11-21T07:49:33;100311.84;;;9.56;100.00
24230;BME280;12362;50.004;8.006;2023-11-21T07:52:01;100308.75;;;9.66;100.00
24230;BME280;12362;50.004;8.006;2023-11-21T07:54:30;100305.88;;;9.72;100.00
24230;BME280;12362;50.004;8.006;2023-11-21T07:57:04;100310.84;;;9.77;100.00
24230;BME280;12362;50.004;8.006;2023-11-21T07:59:33;100320.66;;;9.89;100.00
24230;BME280;12362;50.004;8.006;2023-11-21T08:01:59;100322.25;;;9.91;100.00
24230;BME280;12362;50.004;8.006;2023-11-21T08:04:25;100322.25;;;9.91;100.00
24230;BME280;12362;50.004;8.006;2023-11-21T08:06:51;100332.41;;;9.95;100.00
24230;BME280;12362;50.004;8.006;2023-11-21T08:09:16;100332.34;;;9.97;100.00
24230;BME280;12362;50.004;8.006;2023-11-21T08:11:43;100329.69;;;9.98;100.00
24230;BME280;12362;50.004;8.006;2023-11-21T08:14:08;100334.88;;;9.98;100.00
24230;BME280;12362;50.004;8.006;2023-11-21T08:16:34;100333.06;;;10.00;100.00
24230;BME280;12362;50.004;8.006;2023-11-21T08:19:00;100334.44;;;10.07;100.00
24230;BME280;12362;50.004;8.006;2023-11-21T08:21:26;100334.25;;;10.12;100.00
24230;BME280;12362;50.004;8.006;2023-11-21T08:23:55;100339.03;;;10.19;100.00
24230;BME280;12362;50.004;8.006;2023-11-21T08:26:24;100336.31;;;10.22;100.00
24230;BME280;12362;50.004;8.006;2023-11-21T08:29:11;100343.31;;;10.20;100.00
24230;BME280;12362;50.004;8.006;2023-11-21T08:31:39;100351.53;;;10.30;100.00
24230;BME280;12362;50.004;8.006;2023-11-21T08:34:09;100357.38;;;10.33;100.00
24230;BME280;12362;50.004;8.006;2023-11-21T08:36:54;100363.13;;;10.40;100.00
24230;BME280;12362;50.004;8.006;2023-11-21T08:39:22;100359.63;;;10.41;100.00
24230;BME280;12362;50.004;8.006;2023-11-21T08:41:50;100363.38;;;10.52;100.00
24230;BME280;12362;50.004;8.006;2023-11-21T08:44:19;100364.31;;;10.51;100.00
24230;BME280;12362;50.004;8.006;2023-11-21T08:47:01;100362.84;;;10.46;100.00
24230;BME280;12362;50.004;8.006;2023-11-21T08:49:26;100351.00;;;10.40;100.00
24230;BME280;12362;50.004;8.006;2023-11-21T08:51:53;100357.38;;;10.33;100.00
24230;BME280;12362;50.004;8.006;2023-11-21T08:54:21;100360.66;;;10.37;100.00
24230;BME280;12362;50.004;8.006;2023-11-21T08:56:46;100362.22;;;10.41;100.00
24230;BME280;12362;50.004;8.006;2023-11-21T08:59:17;100354.28;;;10.44;100.00
24230;BME280;12362;50.004;8.006;2023-11-21T09:01:43;100360.78;;;10.52;100.00
24230;BME280;12362;50.004;8.006;2023-11-21T09:04:08;100360.16;;;10.47;100.00
24230;BME280;12362;50.004;8.006;2023-11-21T09:06:37;100355.50;;;10.54;100.00
24230;BME280;12362;50.004;8.006;2023-11-21T09:09:15;100359.13;;;10.51;100.00
24230;BME280;12362;50.004;8.006;2023-11-21T09:11:41;100365.44;;;10.46;100.00
24230;BME280;12362;50.004;8.006;2023-11-21T09:14:06;100368.91;;;10.63;100.00
24230;BME280;12362;50.004;8.006;2023-11-21T09:16:32;100370.50;;;10.66;100.00
24230;BME280;12362;50.004;8.006;2023-11-21T09:18:58;100358.56;;;10.79;100.00
24230;BME280;12362;50.004;8.006;2023-11-21T09:21:24;100376.44;;;10.84;100.00
24230;BME280;12362;50.004;8.006;2023-11-21T09:23:50;100375.22;;;10.91;100.00
24230;BME280;12362;50.004;8.006;2023-11-21T09:26:19;100385.63;;;10.91;100.00
24230;BME280;12362;50.004;8.006;2023-11-21T09:28:45;100383.78;;;10.93;100.00
24230;BME280;12362;50.004;8.006;2023-11-21T09:31:20;100395.16;;;10.91;100.00
24230;BME280;12362;50.004;8.006;2023-11-21T09:33:48;100397.22;;;11.01;100.00
24230;BME280;12362;50.004;8.006;2023-11-21T09:36:14;100394.47;;;11.04;100.00
24230;BME280;12362;50.004;8.006;2023-11-21T09:38:42;100398.66;;;11.07;100.00
24230;BME280;12362;50.004;8.006;2023-11-21T09:41:15;100392.75;;;11.20;100.00
24230;BME280;12362;50.004;8.006;2023-11-21T09:43:46;100406.75;;;11.18;100.00
24230;BME280;12362;50.004;8.006;2023-11-21T09:46:13;100401.69;;;11.32;100.00
24230;BME280;12362;50.004;8.006;2023-11-21T09:48:48;100415.09;;;11.24;100.00
24230;BME280;12362;50.004;8.006;2023-11-21T09:51:19;100417.84;;;11.21;100.00
24230;BME280;12362;50.004;8.006;2023-11-21T09:53:49;100419.56;;;11.38;100.00
24230;BME280;12362;50.004;8.006;2023-11-21T09:56:15;100428.59;;;11.48;100.00
24230;BME280;12362;50.004;8.006;2023-11-21T09:58:44;100421.25;;;11.56;100.00
24230;BME280;12362;50.004;8.006;2023-11-21T10:01:11;100430.38;;;11.79;100.00
24230;BME280;12362;50.004;8.006;2023-11-21T10:03:39;100421.13;;;11.74;100.00
24230;BME280;12362;50.004;8.006;2023-11-21T10:06:07;100421.72;;;11.79;100.00
24230;BME280;12362;50.004;8.006;2023-11-21T10:08:34;100419.13;;;11.47;100.00
24230;BME280;12362;50.004;8.006;2023-11-21T10:11:02;100419.44;;;11.58;100.00
24230;BME280;12362;50.004;8.006;2023-11-21T10:13:30;100436.88;;;11.88;100.00
24230;BME280;12362;50.004;8.006;2023-11-21T10:15:56;100426.84;;;11.80;100.00
24230;BME280;12362;50.004;8.006;2023-11-21T10:18:24;100431.47;;;11.91;100.00
24230;BME280;12362;50.004;8.006;2023-11-21T10:20:52;100434.16;;;11.89;100.00
24230;BME280;12362;50.004;8.006;2023-11-21T10:23:20;100438.34;;;11.92;100.00
24230;BME280;12362;50.004;8.006;2023-11-21T10:25:47;100440.31;;;12.04;100.00
24230;BME280;12362;50.004;8.006;2023-11-21T10:28:13;100446.78;;;12.12;100.00
24230;BME280;12362;50.004;8.006;2023-11-21T10:30:39;100446.38;;;12.20;100.00
24230;BME280;12362;50.004;8.006;2023-11-21T10:33:06;100441.06;;;12.21;100.00
24230;BME280;12362;50.004;8.006;2023-11-21T10:35:46;100444.09;;;12.29;100.00
24230;BME280;12362;50.004;8.006;2023-11-21T10:38:18;100444.44;;;12.23;100.00
24230;BME280;12362;50.004;8.006;2023-11-21T10:40:45;100445.34;;;12.22;100.00
24230;BME280;12362;50.004;8.006;2023-11-21T10:43:11;100450.91;;;12.47;100.00
24230;BME280;12362;50.004;8.006;2023-11-21T10:45:44;100444.97;;;12.74;100.00
24230;BME280;12362;50.004;8.006;2023-11-21T10:48:10;100432.34;;;12.98;100.00
24230;BME280;12362;50.004;8.006;2023-11-21T10:50:37;100419.06;;;13.02;100.00
24230;BME280;12362;50.004;8.006;2023-11-21T10:53:03;100421.22;;;13.10;100.00
24230;BME280;12362;50.004;8.006;2023-11-21T10:55:31;100425.09;;;13.03;100.00
24230;BME280;12362;50.004;8.006;2023-11-21T10:58:00;100429.06;;;13.24;100.00
24230;BME280;12362;50.004;8.006;2023-11-21T11:00:28;100415.13;;;13.80;100.00
24230;BME280;12362;50.004;8.006;2023-11-21T11:02:54;100407.81;;;13.99;100.00
24230;BME280;12362;50.004;8.006;2023-11-21T11:05:29;100416.56;;;13.29;100.00
24230;BME280;12362;50.004;8.006;2023-11-21T11:08:00;100409.72;;;13.69;100.00
24230;BME280;12362;50.004;8.006;2023-11-21T11:10:29;100395.28;;;13.78;100.00
24230;BME280;12362;50.004;8.006;2023-11-21T11:12:56;100399.28;;;13.56;100.00
24230;BME280;12362;50.004;8.006;2023-11-21T11:15:25;100401.88;;;13.83;100.00
24230;BME280;12362;50.004;8.006;2023-11-21T11:17:53;100386.72;;;14.56;100.00
24230;BME280;12362;50.004;8.006;2023-11-21T11:20:38;100397.50;;;14.64;100.00
24230;BME280;12362;50.004;8.006;2023-11-21T11:26:46;100392.13;;;14.27;100.00
24230;BME280;12362;50.004;8.006;2023-11-21T11:29:33;100397.47;;;14.52;100.00
24230;BME280;12362;50.004;8.006;2023-11-21T11:34:47;100403.50;;;14.26;100.00
24230;BME280;12362;50.004;8.006;2023-11-21T11:37:15;100396.47;;;14.41;100.00
24230;BME280;12362;50.004;8.006;2023-11-21T11:39:42;100401.56;;;14.56;100.00
24230;BME280;12362;50.004;8.006;2023-11-21T11:42:13;100398.69;;;14.47;100.00
24230;BME280;12362;50.004;8.006;2023-11-21T11:47:16;100387.31;;;14.48;100.00
24230;BME280;12362;50.004;8.006;2023-11-21T11:50:08;100387.94;;;14.51;100.00
24230;BME280;12362;50.004;8.006;2023-11-21T11:53:18;100391.63;;;14.61;100.00
24230;BME280;12362;50.004;8.006;2023-11-21T11:55:45;100395.88;;;14.88;100.00
24230;BME280;12362;50.004;8.006;2023-11-21T11:58:11;100392.00;;;14.81;100.00
24230;BME280;12362;50.004;8.006;2023-11-21T12:00:37;100392.44;;;14.88;100.00
24230;BME280;12362;50.004;8.006;2023-11-21T12:03:15;100385.41;;;14.76;100.00
24230;BME280;12362;50.004;8.006;2023-11-21T12:05:40;100394.88;;;14.64;100.00
24230;BME280;12362;50.004;8.006;2023-11-21T12:08:12;100388.41;;;14.70;100.00
24230;BME280;12362;50.004;8.006;2023-11-21T12:10:52;100406.88;;;14.28;100.00
24230;BME280;12362;50.004;8.006;2023-11-21T12:14:10;100403.94;;;14.47;100.00
24230;BME280;12362;50.004;8.006;2023-11-21T12:16:47;100416.22;;;14.04;100.00
24230;BME280;12362;50.004;8.006;2023-11-21T12:19:13;100421.03;;;14.10;100.00
24230;BME280;12362;50.004;8.006;2023-11-21T12:21:43;100432.81;;;13.75;100.00
24230;BME280;12362;50.004;8.006;2023-11-21T12:24:10;100440.72;;;13.46;100.00
24230;BME280;12362;50.004;8.006;2023-11-21T12:26:42;100444.78;;;13.22;100.00
24230;BME280;12362;50.004;8.006;2023-11-21T12:29:27;100454.25;;;13.09;100.00
24230;BME280;12362;50.004;8.006;2023-11-21T12:31:54;100451.13;;;13.18;100.00
24230;BME280;12362;50.004;8.006;2023-11-21T12:34:21;100460.28;;;12.80;100.00
24230;BME280;12362;50.004;8.006;2023-11-21T12:37:08;100450.06;;;13.07;100.00
24230;BME280;12362;50.004;8.006;2023-11-21T12:39:42;100447.41;;;12.93;100.00
24230;BME280;12362;50.004;8.006;2023-11-21T12:42:10;100454.72;;;13.02;100.00
24230;BME280;12362;50.004;8.006;2023-11-21T12:44:35;100454.06;;;13.12;100.00
24230;BME280;12362;50.004;8.006;2023-11-21T12:47:24;100453.81;;;13.17;100.00
24230;BME280;12362;50.004;8.006;2023-11-21T12:49:50;100444.78;;;13.08;100.00
24230;BME280;12362;50.004;8.006;2023-11-21T12:52:16;100445.69;;;13.37;100.00
24230;BME280;12362;50.004;8.006;2023-11-21T12:54:54;100463.25;;;13.19;100.00
24230;BME280;12362;50.004;8.006;2023-11-21T12:57:27;100458.03;;;13.04;100.00
24230;BME280;12362;50.004;8.006;2023-11-21T12:59:57;100460.41;;;13.08;100.00
24230;BME280;12362;50.004;8.006;2023-11-21T13:02:30;100461.34;;;13.07;100.00
24230;BME280;12362;50.004;8.006;2023-11-21T13:08:18;100472.22;;;13.00;100.00